sensor_id;sensor_type;location;lat;lon;timestamp;pressure;altitude;pressure_sealevel;temperature;humidity
79625;BME280;69101;45.534;10.218;2023-05-07T00:00:08;99858.03;;;22.84;46.14
79625;BME280;69101;45.534;10.218;2023-05-07T00:02:34;99867.81;;;22.83;46.02
79625;BME280;69101;45.534;10.218;2023-05-07T00:05:01;99882.94;;;22.83;46.05
79625;BME280;69101;45.534;10.218;2023-05-07T00:07:27;99882.94;;;22.83;45.96
79625;BME280;69101;45.534;10.218;2023-05-07T00:09:53;99876.81;;;22.82;45.76
79625;BME280;69101;45.534;10.218;2023-05-07T00:12:18;99882.94;;;22.83;45.82
79625;BME280;69101;45.534;10.218;2023-05-07T00:14:44;99874.97;;;22.83;45.81
79625;BME280;69101;45.534;10.218;2023-05-07T00:17:09;99869.88;;;22.81;45.95
79625;BME280;69101;45.534;10.218;2023-05-07T00:19:34;99877.63;;;22.83;46.00
79625;BME280;69101;45.534;10.218;2023-05-07T00:22:00;99870.88;;;22.80;45.76
79625;BME280;69101;45.534;10.218;2023-05-07T00:24:25;99885.78;;;22.81;45.84
79625;BME280;69101;45.534;10.218;2023-05-07T00:26:51;99890.25;;;22.81;45.84
79625;BME280;69101;45.534;10.218;2023-05-07T00:29:17;99882.31;;;22.81;46.09
79625;BME280;69101;45.534;10.218;2023-05-07T00:31:43;99881.72;;;22.79;46.08
79625;BME280;69101;45.534;10.218;2023-05-07T00:34:08;99885.19;;;22.79;46.01
79625;BME280;69101;45.534;10.218;2023-05-07T00:36:33;99886.19;;;22.78;46.24
79625;BME280;69101;45.534;10.218;2023-05-07T00:39:00;99869.47;;;22.78;46.02
79625;BME280;69101;45.534;10.218;2023-05-07T00:41:26;99874.75;;;22.78;45.97
79625;BME280;69101;45.534;10.218;2023-05-07T00:43:52;99884.59;;;22.77;46.17
79625;BME280;69101;45.534;10.218;2023-05-07T00:46:20;99875.00;;;22.76;46.18
79625;BME280;69101;45.534;10.218;2023-05-07T00:48:46;99877.63;;;22.76;46.05
79625;BME280;69101;45.534;10.218;2023-05-07T00:51:11;99878.66;;;22.75;45.92
79625;BME280;69101;45.534;10.218;2023-05-07T00:53:38;99887.44;;;22.76;46.04
79625;BME280;69101;45.534;10.218;2023-05-07T00:56:04;99883.34;;;22.73;46.24
79625;BME280;69101;45.534;10.218;2023-05-07T00:58:31;99892.94;;;22.74;46.36
79625;BME280;69101;45.534;10.218;2023-05-07T01:00:57;99894.56;;;22.75;46.36
79625;BME280;69101;45.534;10.218;2023-05-07T01:03:23;99896.44;;;22.75;46.36
79625;BME280;69101;45.534;10.218;2023-05-07T01:05:49;99900.91;;;22.74;46.27
79625;BME280;69101;45.534;10.218;2023-05-07T01:08:15;99893.16;;;22.73;46.31
79625;BME280;69101;45.534;10.218;2023-05-07T01:10:41;99881.75;;;22.66;46.39
79625;BME280;69101;45.534;10.218;2023-05-07T01:13:09;99893.97;;;22.73;46.32
79625;BME280;69101;45.534;10.218;2023-05-07T01:15:35;99898.44;;;22.73;46.50
79625;BME280;69101;45.534;10.218;2023-05-07T01:18:01;99896.84;;;22.72;46.44
79625;BME280;69101;45.534;10.218;2023-05-07T01:20:28;99901.09;;;22.73;46.58
79625;BME280;69101;45.534;10.218;2023-05-07T01:22:53;99912.75;;;22.72;46.45
79625;BME280;69101;45.534;10.218;2023-05-07T01:25:19;99909.50;;;22.70;46.54
79625;BME280;69101;45.534;10.218;2023-05-07T01:27:44;99905.81;;;22.71;46.36
79625;BME280;69101;45.534;10.218;2023-05-07T01:30:10;99902.31;;;22.70;46.46
79625;BME280;69101;45.534;10.218;2023-05-07T01:32:40;99904.38;;;22.68;46.60
79625;BME280;69101;45.534;10.218;2023-05-07T01:35:11;99904.38;;;22.68;46.63
79625;BME280;69101;45.534;10.218;2023-05-07T01:37:38;99897.44;;;22.61;46.54
79625;BME280;69101;45.534;10.218;2023-05-07T01:40:04;99905.63;;;22.66;46.38
79625;BME280;69101;45.534;10.218;2023-05-07T01:42:29;99910.72;;;22.67;46.61
79625;BME280;69101;45.534;10.218;2023-05-07T01:44:55;99913.38;;;22.67;46.49
79625;BME280;69101;45.534;10.218;2023-05-07T01:47:21;99916.03;;;22.67;46.35
79625;BME280;69101;45.534;10.218;2023-05-07T01:49:47;99905.41;;;22.67;46.38
79625;BME280;69101;45.534;10.218;2023-05-07T01:52:12;99901.13;;;22.66;46.42
79625;BME280;69101;45.534;10.218;2023-05-07T01:54:38;99909.09;;;22.66;46.43
79625;BME280;69101;45.534;10.218;2023-05-07T01:57:03;99907.25;;;22.67;46.38
79625;BME280;69101;45.534;10.218;2023-05-07T01:59:28;99906.66;;;22.65;46.58
79625;BME280;69101;45.534;10.218;2023-05-07T02:01:54;99906.84;;;22.63;46.45
79625;BME280;69101;45.534;10.218;2023-05-07T02:04:19;99906.84;;;22.63;46.60
79625;BME280;69101;45.534;10.218;2023-05-07T02:06:44;99900.53;;;22.64;46.52
79625;BME280;69101;45.534;10.218;2023-05-07T02:09:10;99909.50;;;22.63;46.46
79625;BME280;69101;45.534;10.218;2023-05-07T02:11:36;99900.53;;;22.64;46.71
79625;BME280;69101;45.534;10.218;2023-05-07T02:14:01;99895.22;;;22.64;46.60
79625;BME280;69101;45.534;10.218;2023-05-07T02:16:26;99909.50;;;22.63;46.54
79625;BME280;69101;45.534;10.218;2023-05-07T02:18:52;99910.53;;;22.62;46.73
79625;BME280;69101;45.534;10.218;2023-05-07T02:21:17;99901.53;;;22.63;46.71
79625;BME280;69101;45.534;10.218;2023-05-07T02:23:43;99899.72;;;22.64;46.73
79625;BME280;69101;45.534;10.218;2023-05-07T02:26:08;99892.78;;;22.63;47.48
79625;BME280;69101;45.534;10.218;2023-05-07T02:28:33;99884.63;;;22.64;47.63
79625;BME280;69101;45.534;10.218;2023-05-07T02:31:02;99889.69;;;22.66;47.51
79625;BME280;69101;45.534;10.218;2023-05-07T02:33:28;99887.88;;;22.66;47.36
79625;BME280;69101;45.534;10.218;2023-05-07T02:35:53;99887.06;;;22.66;47.13
79625;BME280;69101;45.534;10.218;2023-05-07T02:38:18;99882.16;;;22.63;47.25
79625;BME280;69101;45.534;10.218;2023-05-07T02:40:44;99882.97;;;22.63;47.74
79625;BME280;69101;45.534;10.218;2023-05-07T02:43:09;99885.22;;;22.66;48.83
79625;BME280;69101;45.534;10.218;2023-05-07T02:45:35;99885.44;;;22.65;47.70
79625;BME280;69101;45.534;10.218;2023-05-07T02:48:02;99881.38;;;22.62;47.32
79625;BME280;69101;45.534;10.218;2023-05-07T02:50:28;99882.97;;;22.63;47.54
79625;BME280;69101;45.534;10.218;2023-05-07T02:52:53;99878.72;;;22.62;47.46
79625;BME280;69101;45.534;10.218;2023-05-07T02:55:19;99867.47;;;22.60;47.42
79625;BME280;69101;45.534;10.218;2023-05-07T02:57:44;99869.09;;;22.61;47.50
79625;BME280;69101;45.534;10.218;2023-05-07T03:00:14;99878.50;;;22.64;48.72
79625;BME280;69101;45.534;10.218;2023-05-07T03:02:39;99872.19;;;22.65;49.63
79625;BME280;69101;45.534;10.218;2023-05-07T03:05:05;99866.66;;;22.66;49.73
79625;BME280;69101;45.534;10.218;2023-05-07T03:07:31;99864.25;;;22.65;47.89
79625;BME280;69101;45.534;10.218;2023-05-07T03:09:56;99860.75;;;22.64;48.15
79625;BME280;69101;45.534;10.218;2023-05-07T03:12:21;99856.47;;;22.63;48.41
79625;BME280;69101;45.534;10.218;2023-05-07T03:14:47;99844.84;;;22.64;49.18
79625;BME280;69101;45.534;10.218;2023-05-07T03:17:12;99844.63;;;22.66;49.25
79625;BME280;69101;45.534;10.218;2023-05-07T03:19:37;99844.63;;;22.66;47.91
79625;BME280;69101;45.534;10.218;2023-05-07T03:22:03;99838.75;;;22.64;48.76
79625;BME280;69101;45.534;10.218;2023-05-07T03:24:28;99833.66;;;22.62;47.42
79625;BME280;69101;45.534;10.218;2023-05-07T03:26:54;99835.66;;;22.60;47.56
79625;BME280;69101;45.534;10.218;2023-05-07T03:29:19;99837.69;;;22.58;47.73
79625;BME280;69101;45.534;10.218;2023-05-07T03:31:45;99845.06;;;22.56;47.65
79625;BME280;69101;45.534;10.218;2023-05-07T03:34:10;99850.34;;;22.56;47.54
79625;BME280;69101;45.534;10.218;2023-05-07T03:36:35;99860.97;;;22.56;47.44
79625;BME280;69101;45.534;10.218;2023-05-07T03:39:01;99855.66;;;22.56;47.69
79625;BME280;69101;45.534;10.218;2023-05-07T03:41:26;99860.13;;;22.56;47.45
79625;BME280;69101;45.534;10.218;2023-05-07T03:43:51;99868.31;;;22.54;47.18
79625;BME280;69101;45.534;10.218;2023-05-07T03:46:17;99856.88;;;22.54;47.42
79625;BME280;69101;45.534;10.218;2023-05-07T03:48:42;99858.94;;;22.52;47.24
79625;BME280;69101;45.534;10.218;2023-05-07T03:51:07;99858.72;;;22.53;47.51
79625;BME280;69101;45.534;10.218;2023-05-07T03:53:33;99852.00;;;22.51;47.22
79625;BME280;69101;45.534;10.218;2023-05-07T03:55:58;99863.81;;;22.55;49.04
79625;BME280;69101;45.534;10.218;2023-05-07T03:58:23;99864.22;;;22.58;48.83
79625;BME280;69101;45.534;10.218;2023-05-07T04:00:49;99863.63;;;22.56;46.89
79625;BME280;69101;45.534;10.218;2023-05-07T04:03:14;99861.16;;;22.55;47.15
79625;BME280;69101;45.534;10.218;2023-05-07T04:05:40;99870.34;;;22.52;47.11
79625;BME280;69101;45.534;10.218;2023-05-07T04:08:06;99869.53;;;22.52;47.08
79625;BME280;69101;45.534;10.218;2023-05-07T04:10:31;99868.72;;;22.51;47.45
79625;BME280;69101;45.534;10.218;2023-05-07T04:12:56;99864.66;;;22.49;46.92
79625;BME280;69101;45.534;10.218;2023-05-07T04:15:23;99868.13;;;22.49;46.96
79625;BME280;69101;45.534;10.218;2023-05-07T04:17:48;99876.69;;;22.51;47.05
79625;BME280;69101;45.534;10.218;2023-05-07T04:20:16;99870.16;;;22.47;47.15
79625;BME280;69101;45.534;10.218;2023-05-07T04:22:42;99873.63;;;22.48;46.90
79625;BME280;69101;45.534;10.218;2023-05-07T04:25:08;99874.03;;;22.51;47.63
79625;BME280;69101;45.534;10.218;2023-05-07T04:27:34;99871.56;;;22.50;46.86
79625;BME280;69101;45.534;10.218;2023-05-07T04:30:00;99882.16;;;22.50;47.02
79625;BME280;69101;45.534;10.218;2023-05-07T04:32:26;99882.38;;;22.48;47.49
79625;BME280;69101;45.534;10.218;2023-05-07T04:34:54;99882.38;;;22.48;46.73
79625;BME280;69101;45.534;10.218;2023-05-07T04:37:19;99887.69;;;22.48;46.75
79625;BME280;69101;45.534;10.218;2023-05-07T04:39:45;99888.28;;;22.50;46.90
79625;BME280;69101;45.534;10.218;2023-05-07T04:42:14;99889.94;;;22.51;47.06
79625;BME280;69101;45.534;10.218;2023-05-07T04:44:40;99888.50;;;22.49;47.35
79625;BME280;69101;45.534;10.218;2023-05-07T04:47:05;99890.13;;;22.50;46.79
79625;BME280;69101;45.534;10.218;2023-05-07T04:49:31;99892.78;;;22.50;46.89
79625;BME280;69101;45.534;10.218;2023-05-07T04:51:56;99893.59;;;22.50;46.88
79625;BME280;69101;45.534;10.218;2023-05-07T04:54:22;99888.28;;;22.50;46.83
79625;BME280;69101;45.534;10.218;2023-05-07T04:56:47;99897.06;;;22.51;46.73
79625;BME280;69101;45.534;10.218;2023-05-07T04:59:12;99904.00;;;22.52;47.18
79625;BME280;69101;45.534;10.218;2023-05-07T05:01:38;99908.47;;;22.51;47.01
79625;BME280;69101;45.534;10.218;2023-05-07T05:04:03;99909.09;;;22.53;47.03
79625;BME280;69101;45.534;10.218;2023-05-07T05:06:28;99914.78;;;22.57;47.13
79625;BME280;69101;45.534;10.218;2023-05-07T05:08:54;99914.56;;;22.58;46.63
79625;BME280;69101;45.534;10.218;2023-05-07T05:11:20;99918.06;;;22.59;47.00
79625;BME280;69101;45.534;10.218;2023-05-07T05:13:46;99917.22;;;22.58;47.95
79625;BME280;69101;45.534;10.218;2023-05-07T05:16:14;99917.03;;;22.60;47.27
79625;BME280;69101;45.534;10.218;2023-05-07T05:18:39;99924.16;;;22.59;47.39
79625;BME280;69101;45.534;10.218;2023-05-07T05:21:05;99930.28;;;22.60;47.38
79625;BME280;69101;45.534;10.218;2023-05-07T05:23:30;99934.78;;;22.59;47.08
79625;BME280;69101;45.534;10.218;2023-05-07T05:25:56;99927.84;;;22.58;46.70
79625;BME280;69101;45.534;10.218;2023-05-07T05:28:23;99926.22;;;22.57;47.74
79625;BME280;69101;45.534;10.218;2023-05-07T05:30:48;99907.66;;;22.57;47.20
79625;BME280;69101;45.534;10.218;2023-05-07T05:33:14;99916.41;;;22.58;46.70
79625;BME280;69101;45.534;10.218;2023-05-07T05:35:39;99909.50;;;22.57;46.53
79625;BME280;69101;45.534;10.218;2023-05-07T05:38:05;99910.31;;;22.57;46.54
79625;BME280;69101;45.534;10.218;2023-05-07T05:40:30;99914.78;;;22.57;47.70
79625;BME280;69101;45.534;10.218;2023-05-07T05:42:56;99922.94;;;22.55;46.74
79625;BME280;69101;45.534;10.218;2023-05-07T05:45:21;99917.63;;;22.55;46.41
79625;BME280;69101;45.534;10.218;2023-05-07T05:47:46;99914.97;;;22.55;46.42
79625;BME280;69101;45.534;10.218;2023-05-07T05:50:12;99914.97;;;22.55;46.36
79625;BME280;69101;45.534;10.218;2023-05-07T05:52:37;99920.28;;;22.55;46.48
79625;BME280;69101;45.534;10.218;2023-05-07T05:55:03;99918.47;;;22.56;46.40
79625;BME280;69101;45.534;10.218;2023-05-07T05:57:28;99913.16;;;22.56;46.48
79625;BME280;69101;45.534;10.218;2023-05-07T05:59:54;99908.69;;;22.56;46.31
79625;BME280;69101;45.534;10.218;2023-05-07T06:02:20;99912.97;;;22.57;46.49
79625;BME280;69101;45.534;10.218;2023-05-07T06:04:45;99911.31;;;22.56;46.28
79625;BME280;69101;45.534;10.218;2023-05-07T06:07:10;99913.16;;;22.56;47.67
79625;BME280;69101;45.534;10.218;2023-05-07T06:09:36;99911.31;;;22.56;46.77
79625;BME280;69101;45.534;10.218;2023-05-07T06:12:02;99912.34;;;22.55;46.69
79625;BME280;69101;45.534;10.218;2023-05-07T06:14:27;99913.16;;;22.56;46.51
79625;BME280;69101;45.534;10.218;2023-05-07T06:16:52;99911.31;;;22.56;46.51
79625;BME280;69101;45.534;10.218;2023-05-07T06:19:18;99910.50;;;22.56;46.75
79625;BME280;69101;45.534;10.218;2023-05-07T06:21:48;99913.75;;;22.58;46.84
79625;BME280;69101;45.534;10.218;2023-05-07T06:24:13;99915.63;;;22.57;46.67
79625;BME280;69101;45.534;10.218;2023-05-07T06:26:38;99913.97;;;22.56;46.76
79625;BME280;69101;45.534;10.218;2023-05-07T06:29:05;99911.09;;;22.58;46.76
79625;BME280;69101;45.534;10.218;2023-05-07T06:31:31;99906.63;;;22.58;46.97
79625;BME280;69101;45.534;10.218;2023-05-07T06:33:57;99899.72;;;22.57;46.78
79625;BME280;69101;45.534;10.218;2023-05-07T06:36:22;99893.59;;;22.57;47.01
79625;BME280;69101;45.534;10.218;2023-05-07T06:38:48;99892.56;;;22.58;46.83
79625;BME280;69101;45.534;10.218;2023-05-07T06:41:13;99891.75;;;22.57;47.05
79625;BME280;69101;45.534;10.218;2023-05-07T06:43:38;99890.72;;;22.58;47.15
79625;BME280;69101;45.534;10.218;2023-05-07T06:46:04;99896.03;;;22.58;47.07
79625;BME280;69101;45.534;10.218;2023-05-07T06:48:30;99890.72;;;22.58;46.90
79625;BME280;69101;45.534;10.218;2023-05-07T06:50:56;99898.66;;;22.58;46.80
79625;BME280;69101;45.534;10.218;2023-05-07T06:53:23;99896.03;;;22.58;46.90
79625;BME280;69101;45.534;10.218;2023-05-07T06:55:48;99897.66;;;22.59;47.34
79625;BME280;69101;45.534;10.218;2023-05-07T06:58:14;99904.78;;;22.59;47.16
79625;BME280;69101;45.534;10.218;2023-05-07T07:00:39;99906.84;;;22.57;46.62
79625;BME280;69101;45.534;10.218;2023-05-07T07:03:06;99916.41;;;22.58;46.64
79625;BME280;69101;45.534;10.218;2023-05-07T07:05:31;99915.41;;;22.59;46.79
79625;BME280;69101;45.534;10.218;2023-05-07T07:07:56;99914.56;;;22.58;47.17
79625;BME280;69101;45.534;10.218;2023-05-07T07:10:22;99912.53;;;22.60;46.58
79625;BME280;69101;45.534;10.218;2023-05-07T07:12:48;99908.03;;;22.61;46.58
79625;BME280;69101;45.534;10.218;2023-05-07T07:15:14;99903.97;;;22.58;46.42
79625;BME280;69101;45.534;10.218;2023-05-07T07:17:40;99901.13;;;22.60;46.47
79625;BME280;69101;45.534;10.218;2023-05-07T07:20:06;99906.44;;;22.60;46.59
79625;BME280;69101;45.534;10.218;2023-05-07T07:22:31;99902.97;;;22.59;46.48
79625;BME280;69101;45.534;10.218;2023-05-07T07:24:57;99900.09;;;22.61;46.46
79625;BME280;69101;45.534;10.218;2023-05-07T07:27:22;99903.56;;;22.61;46.34
79625;BME280;69101;45.534;10.218;2023-05-07T07:29:47;99912.34;;;22.62;46.67
79625;BME280;69101;45.534;10.218;2023-05-07T07:32:13;99914.16;;;22.61;46.38
79625;BME280;69101;45.534;10.218;2023-05-07T07:34:38;99905.41;;;22.61;46.33
79625;BME280;69101;45.534;10.218;2023-05-07T07:37:03;99909.69;;;22.62;46.24
79625;BME280;69101;45.534;10.218;2023-05-07T07:39:32;99914.16;;;22.61;46.44
79625;BME280;69101;45.534;10.218;2023-05-07T07:41:57;99907.88;;;22.62;46.47
79625;BME280;69101;45.534;10.218;2023-05-07T07:44:22;99911.31;;;22.63;46.41
79625;BME280;69101;45.534;10.218;2023-05-07T07:46:48;99906.84;;;22.63;46.69
79625;BME280;69101;45.534;10.218;2023-05-07T07:49:14;99905.22;;;22.62;46.26
79625;BME280;69101;45.534;10.218;2023-05-07T07:51:39;99908.69;;;22.63;46.39
79625;BME280;69101;45.534;10.218;2023-05-07T07:54:05;99907.88;;;22.62;46.30
79625;BME280;69101;45.534;10.218;2023-05-07T07:56:32;99919.09;;;22.64;46.32
79625;BME280;69101;45.534;10.218;2023-05-07T07:58:58;99914.78;;;22.63;46.46
79625;BME280;69101;45.534;10.218;2023-05-07T08:01:23;99915.41;;;22.65;46.39
79625;BME280;69101;45.534;10.218;2023-05-07T08:03:49;99915.22;;;22.67;46.21
79625;BME280;69101;45.534;10.218;2023-05-07T08:06:14;99919.09;;;22.64;46.36
79625;BME280;69101;45.534;10.218;2023-05-07T08:08:40;99919.09;;;22.64;46.17
79625;BME280;69101;45.534;10.218;2023-05-07T08:11:06;99922.34;;;22.66;46.38
79625;BME280;69101;45.534;10.218;2023-05-07T08:13:31;99922.94;;;22.68;46.09
79625;BME280;69101;45.534;10.218;2023-05-07T08:15:56;99928.25;;;22.68;46.10
79625;BME280;69101;45.534;10.218;2023-05-07T08:18:22;99930.91;;;22.68;46.18
79625;BME280;69101;45.534;10.218;2023-05-07T08:20:50;99932.94;;;22.66;46.18
79625;BME280;69101;45.534;10.218;2023-05-07T08:23:15;99939.25;;;22.72;46.34
79625;BME280;69101;45.534;10.218;2023-05-07T08:25:40;99944.56;;;22.72;46.15
79625;BME280;69101;45.534;10.218;2023-05-07T08:28:08;99941.91;;;22.72;46.22
79625;BME280;69101;45.534;10.218;2023-05-07T08:30:33;99947.22;;;22.72;46.12
79625;BME280;69101;45.534;10.218;2023-05-07T08:32:59;99949.88;;;22.72;46.17
79625;BME280;69101;45.534;10.218;2023-05-07T08:35:24;99948.03;;;22.72;46.19
79625;BME280;69101;45.534;10.218;2023-05-07T08:37:50;99945.97;;;22.74;46.08
79625;BME280;69101;45.534;10.218;2023-05-07T08:40:16;99947.81;;;22.74;46.11
79625;BME280;69101;45.534;10.218;2023-05-07T08:42:41;99947.00;;;22.73;46.27
79625;BME280;69101;45.534;10.218;2023-05-07T08:45:09;99948.63;;;22.74;46.19
79625;BME280;69101;45.534;10.218;2023-05-07T08:47:42;99953.13;;;22.74;45.91
79625;BME280;69101;45.534;10.218;2023-05-07T08:50:10;99948.63;;;22.74;45.99
79625;BME280;69101;45.534;10.218;2023-05-07T08:52:36;99949.47;;;22.75;45.93
79625;BME280;69101;45.534;10.218;2023-05-07T08:55:02;99952.28;;;22.73;46.08
79625;BME280;69101;45.534;10.218;2023-05-07T08:57:28;99945.97;;;22.74;46.00
79625;BME280;69101;45.534;10.218;2023-05-07T08:59:53;99948.41;;;22.76;46.12
79625;BME280;69101;45.534;10.218;2023-05-07T09:02:18;99945.75;;;22.76;45.95
79625;BME280;69101;45.534;10.218;2023-05-07T09:04:44;99944.56;;;22.72;46.22
79625;BME280;69101;45.534;10.218;2023-05-07T09:07:09;99947.59;;;22.75;45.98
79625;BME280;69101;45.534;10.218;2023-05-07T09:09:35;99950.88;;;22.77;45.94
79625;BME280;69101;45.534;10.218;2023-05-07T09:12:00;99950.06;;;22.77;45.98
79625;BME280;69101;45.534;10.218;2023-05-07T09:14:27;99948.22;;;22.77;46.02
79625;BME280;69101;45.534;10.218;2023-05-07T09:16:53;99950.88;;;22.77;45.88
79625;BME280;69101;45.534;10.218;2023-05-07T09:19:22;99943.72;;;22.78;45.96
79625;BME280;69101;45.534;10.218;2023-05-07T09:21:48;99954.13;;;22.79;45.95
79625;BME280;69101;45.534;10.218;2023-05-07T09:24:15;99951.47;;;22.79;46.03
79625;BME280;69101;45.534;10.218;2023-05-07T09:26:41;99952.50;;;22.78;45.83
79625;BME280;69101;45.534;10.218;2023-05-07T09:29:07;99950.88;;;22.77;45.95
79625;BME280;69101;45.534;10.218;2023-05-07T09:31:37;99945.13;;;22.80;45.84
79625;BME280;69101;45.534;10.218;2023-05-07T09:34:04;99946.19;;;22.79;45.91
79625;BME280;69101;45.534;10.218;2023-05-07T09:36:31;99944.34;;;22.80;45.87
79625;BME280;69101;45.534;10.218;2023-05-07T09:38:59;99945.94;;;22.81;46.01
79625;BME280;69101;45.534;10.218;2023-05-07T09:41:25;99941.69;;;22.80;46.07
79625;BME280;69101;45.534;10.218;2023-05-07T09:43:54;99945.13;;;22.80;45.81
79625;BME280;69101;45.534;10.218;2023-05-07T09:46:25;99940.88;;;22.79;46.14
79625;BME280;69101;45.534;10.218;2023-05-07T09:48:53;99937.63;;;22.77;46.10
79625;BME280;69101;45.534;10.218;2023-05-07T09:51:25;99945.13;;;22.80;46.04
79625;BME280;69101;45.534;10.218;2023-05-07T09:53:53;99931.88;;;22.80;45.82
79625;BME280;69101;45.534;10.218;2023-05-07T09:56:19;99947.78;;;22.80;45.96
79625;BME280;69101;45.534;10.218;2023-05-07T09:58:46;99937.19;;;22.80;45.97
79625;BME280;69101;45.534;10.218;2023-05-07T10:01:12;99935.34;;;22.81;45.96
79625;BME280;69101;45.534;10.218;2023-05-07T10:03:40;99940.47;;;22.82;45.86
79625;BME280;69101;45.534;10.218;2023-05-07T10:06:07;99938.81;;;22.81;45.89
79625;BME280;69101;45.534;10.218;2023-05-07T10:08:33;99944.94;;;22.82;45.99
79625;BME280;69101;45.534;10.218;2023-05-07T10:11:00;99935.16;;;22.82;45.92
79625;BME280;69101;45.534;10.218;2023-05-07T10:13:26;99942.06;;;22.83;45.69
79625;BME280;69101;45.534;10.218;2023-05-07T10:15:52;99933.50;;;22.81;45.89
79625;BME280;69101;45.534;10.218;2023-05-07T10:18:19;99930.88;;;22.81;45.73
79625;BME280;69101;45.534;10.218;2023-05-07T10:20:48;99926.97;;;22.84;45.84
79625;BME280;69101;45.534;10.218;2023-05-07T10:23:19;99923.72;;;22.82;45.77
79625;BME280;69101;45.534;10.218;2023-05-07T10:25:47;99919.25;;;22.82;45.82
79625;BME280;69101;45.534;10.218;2023-05-07T10:28:13;99920.84;;;22.83;45.89
79625;BME280;69101;45.534;10.218;2023-05-07T10:31:30;99925.16;;;22.84;45.78
79625;BME280;69101;45.534;10.218;2023-05-07T10:33:51;99917.59;;;22.81;45.71
79625;BME280;69101;45.534;10.218;2023-05-07T10:36:17;99920.84;;;22.83;45.86
79625;BME280;69101;45.534;10.218;2023-05-07T10:38:43;99909.44;;;22.83;45.79
79625;BME280;69101;45.534;10.218;2023-05-07T10:41:09;99910.47;;;22.82;45.88
79625;BME280;69101;45.534;10.218;2023-05-07T10:43:43;99903.94;;;22.84;45.93
79625;BME280;69101;45.534;10.218;2023-05-07T10:46:10;99903.34;;;22.82;45.88
79625;BME280;69101;45.534;10.218;2023-05-07T10:51:29;99899.63;;;22.83;45.85
79625;BME280;69101;45.534;10.218;2023-05-07T10:56:37;99896.78;;;22.85;45.65
79625;BME280;69101;45.534;10.218;2023-05-07T11:01:59;99897.63;;;22.85;45.58
79625;BME280;69101;45.534;10.218;2023-05-07T11:04:27;99894.13;;;22.85;45.61
79625;BME280;69101;45.534;10.218;2023-05-07T11:15:11;99887.59;;;22.87;45.85
79625;BME280;69101;45.534;10.218;2023-05-07T11:17:54;99893.09;;;22.86;45.74
79625;BME280;69101;45.534;10.218;2023-05-07T11:20:19;99892.50;;;22.84;45.79
79625;BME280;69101;45.534;10.218;2023-05-07T11:22:45;99886.38;;;22.83;45.87
79625;BME280;69101;45.534;10.218;2023-05-07T11:25:17;99885.13;;;22.86;45.73
79625;BME280;69101;45.534;10.218;2023-05-07T11:27:44;99890.44;;;22.86;45.80
79625;BME280;69101;45.534;10.218;2023-05-07T11:30:11;99888.63;;;22.86;45.90
79625;BME280;69101;45.534;10.218;2023-05-07T11:32:41;99878.81;;;22.87;45.75
79625;BME280;69101;45.534;10.218;2023-05-07T11:35:07;99880.06;;;22.84;45.74
79625;BME280;69101;45.534;10.218;2023-05-07T11:37:33;99885.97;;;22.86;45.63
79625;BME280;69101;45.534;10.218;2023-05-07T11:40:17;99877.81;;;22.88;45.75
79625;BME280;69101;45.534;10.218;2023-05-07T11:42:42;99875.94;;;22.88;45.72
79625;BME280;69101;45.534;10.218;2023-05-07T11:45:08;99876.59;;;22.84;45.59
79625;BME280;69101;45.534;10.218;2023-05-07T11:47:34;99872.28;;;22.89;45.67
79625;BME280;69101;45.534;10.218;2023-05-07T11:50:05;99872.28;;;22.89;45.75
79625;BME280;69101;45.534;10.218;2023-05-07T11:52:31;99869.44;;;22.84;45.60
79625;BME280;69101;45.534;10.218;2023-05-07T11:54:58;99874.34;;;22.87;45.71
79625;BME280;69101;45.534;10.218;2023-05-07T11:57:25;99875.34;;;22.86;45.58
79625;BME280;69101;45.534;10.218;2023-05-07T11:59:54;99879.22;;;22.90;45.93
79625;BME280;69101;45.534;10.218;2023-05-07T12:02:19;99869.41;;;22.91;45.73
79625;BME280;69101;45.534;10.218;2023-05-07T12:04:45;99876.78;;;22.89;45.78
79625;BME280;69101;45.534;10.218;2023-05-07T12:07:17;99872.06;;;22.91;45.66
79625;BME280;69101;45.534;10.218;2023-05-07T12:09:44;99877.38;;;22.91;45.80
79625;BME280;69101;45.534;10.218;2023-05-07T12:12:09;99881.88;;;22.90;45.70
79625;BME280;69101;45.534;10.218;2023-05-07T12:14:42;99876.34;;;22.92;45.70
79625;BME280;69101;45.534;10.218;2023-05-07T12:17:08;99882.91;;;22.89;45.71
79625;BME280;69101;45.534;10.218;2023-05-07T12:19:35;99873.94;;;22.90;45.62
79625;BME280;69101;45.534;10.218;2023-05-07T12:22:02;99873.94;;;22.90;45.73
79625;BME280;69101;45.534;10.218;2023-05-07T12:24:28;99864.31;;;22.89;45.65
79625;BME280;69101;45.534;10.218;2023-05-07T12:26:53;99872.50;;;22.88;45.62
79625;BME280;69101;45.534;10.218;2023-05-07T12:29:22;99865.97;;;22.90;45.64
79625;BME280;69101;45.534;10.218;2023-05-07T12:31:49;99863.09;;;22.92;45.58
79625;BME280;69101;45.534;10.218;2023-05-07T12:34:15;99870.22;;;22.91;45.56
79625;BME280;69101;45.534;10.218;2023-05-07T12:36:40;99871.06;;;22.92;45.80
79625;BME280;69101;45.534;10.218;2023-05-07T12:39:09;99862.88;;;22.93;45.48
79625;BME280;69101;45.534;10.218;2023-05-07T12:41:54;99856.78;;;22.93;45.56
79625;BME280;69101;45.534;10.218;2023-05-07T12:44:23;99858.38;;;22.94;45.73
79625;BME280;69101;45.534;10.218;2023-05-07T12:46:49;99851.25;;;22.94;45.54
79625;BME280;69101;45.534;10.218;2023-05-07T12:49:15;99855.13;;;22.92;45.62
79625;BME280;69101;45.534;10.218;2023-05-07T12:51:41;99852.06;;;22.95;45.51
79625;BME280;69101;45.534;10.218;2023-05-07T12:54:06;99849.41;;;22.95;45.62
79625;BME280;69101;45.534;10.218;2023-05-07T12:56:31;99837.97;;;22.94;45.43
79625;BME280;69101;45.534;10.218;2023-05-07T12:58:57;99848.59;;;22.94;45.41
79625;BME280;69101;45.534;10.218;2023-05-07T13:01:28;99844.69;;;22.97;45.57